Timeline UpdatesTrip UpdatesNews PostsPvt Posts♥♥Travel TipsAdmin PostsConv PostsFollowed PostsChat RequestsBlog PostsPNR Posts

Disclaimer
Search
 
 
Sat Oct 25, 2014 02:50:52 ISTHomeTrainsΣChainsAtlasPNRForumGalleryNewsFAQTripsMembersLoginFeedback
No Recent News for this Train
Other Trains in the News **new
Latest...
This train runs with 11039 down Chhatrapati Shahu Maharaj Terminus-Gondia Maharashtra express till BHUSAWAL and from Bhusawal get attached to 15017 down Lokmanya Tilak Terminus-Ghorakpur express.
Thu May 12, 2011 (10:23PM)
⇐ Return Journey: Train# 15018-Slip

11039-Slip/CSMT Kolhapur-Gorakhpur Link Express

Time-Table HAS CHANGED.
Sep 04 2014 (10:14PM)
Change Departure Station:
Change Arrival Station:
Post a Train Travel TipPost a Train Travel Tip **new
Post a Comment/Question/Picture/VideoPost a Comment/Question/Picture/Video
Pantry/Catering
✕ NO Pantry Car
✓ Catering Avbl
Loco/Rake Reversals
PUNE/Pune Junction (6); DD/Daund Junction (7); ALD/Allahabad Junction (10);
RSA - Rake Sharing
The Slip coaches to Gorakhpur run together with 11039 Maharashtra Express and are detached at Bhusaval and will be attached to 15017 Kashi Express.
Rake/Coach Composition
Only One SL Coach From KOP To GKP.; Slip Coach Deattached At Bhusaval Jn.
Loco
News    PNR    Forum    Time-Table    Availability    Fare Chart    Map    Arr/Dep History    Trips    Gallery    ΣChains    X/O    Timeline    
Travel Time: 36h 5m    55 halts    Distance: 1400 km    Avg Speed: 38 km/hr
Type: Mail/Express
Zone: CR/Central
Departs @ 07:05 (Avg 21m late)
Platform# ???
SMTWTFS
Chalisgaon Junction/CSN 
Arrives @ 19:10 +1 night
Platform# ???
SMTWTFS
Gorakhpur Junction/GKP 

55 halts. 178 intermediate Stations between Chalisgaon Junction and Gorakhpur Junction

Show ALL intermediate Stations  Show Old Time-Table

#TrkCodeStation NameX/OArrivesAvgDepartsAvgHaltPFDay#KmSpeedElevZoneAddress
1|--|KOPKolhapur CSMT (3)  -15:30+021-707.956563mCRKolhapur 416001, Maharashtra
2|--|VVValivade  15:37-15:39-2m--1-701.350554mCRValivade, Maharashtra
3|--|RKDRukadi (1)X  15:47+315:49+22m--1-694.750544mCRKolhapur, Maharashtra
4|--|HTKHatkanagale (2)  15:58+316:00+42m--1-687.267591mCRDist. Kolhapur 416115, Maharashtra
5|--|JSPJayasingpur  16:13+716:15+62m--1-672.736550mCRJaysingpur, Maharashtra
6|--|MRJMiraj Junction (6)X  16:35+116:40+55m31-660.837554mCRMiraj 416410, Maharashtra
7|--|SLISangli (3)  16:52+616:55+73m11-653.557559mCRSangli, Maharashtra
8|--|BVQBhilavdi  17:15+517:17+52m--1-634.455570mCRSangli, Maharashtra
9|--|KOVKirloskarvadi  17:32+317:34+32m--1-620.651570mCRSangli, Maharashtra
10|--|TKRTakariX  17:43+517:45+62m--1-613.092558mCRSangli, Maharashtra
11|--|BVNRBhavani Nagar  17:49+917:51+112m--1-606.875578mCRTasgaon Rd, Maharashtra
12|--|KRDKarad (3)  18:08+1618:10+172m--1-585.655597mCRDist- Satara., Maharashtra
13|--|MSRMasur  18:25+1718:27+172m--1-571.870610mCRSatara, Maharashtra
14|--|TAZTargaonX  18:38+1918:40+192m--1-559.066617mCRSatara, Maharashtra
15|--|RMPRahimatpur  18:50+2018:52+202m--1-547.956626mCRSatara, Maharashtra
16|--|KRGKoregaonX  19:03+2219:05+212m--1-537.632658mCRKoregaon, Maharashtra
17|--|STRSatara (3)  19:25+1419:28+173m--1-526.946637mCRSatara, Maharashtra
18|--|JSVJarandeshwar  19:38+1719:40+182m--1-519.361678mCRSH 61, Maharashtra
19|--|WTRWatharX  19:58+2220:00+232m--1-500.951799mCRSatara, Maharashtra
20|--|LNNLonand  20:32+2320:34+222m--1-473.651594mCRJn Point Daund /Miraj /Pune, Maharashtra
21|--|NIRANira (1)  20:43+2220:45+242m11-465.957553mCRDist. Pune 412102, Maharashtra
22|--|JJRJejuri (1)  21:13+2821:15+282m11-439.478697mCRDist. Pune 412303, Maharashtra
23|--|ABLEAmbale  21:28+3321:30+322m--1-422.544729mCRMalshiras Rd, Maharashtra
24|-=/GPRGhorpuri (2)  22:23+1722:25+172m--1-383.53558mCRPune, Maharashtra
25/==/PUNEPune Junction (6)X23:05-223:20+715m21-381.262556mCRPune 411001, Maharashtra
26%==%URIUruli (2)  23:48+1223:50+112m21-352.466553mCRDist. Pune 412202, Maharashtra
27%==%KDGKedgaon (2)X  00:13+1000:15+92m22-327.232544mCRDist. Pune 412203, Maharashtra
28%==%DDDaund Junction (7)XO00:55+001:10+1115m32-305.658521mCRNew Daund Dist. Pune 413801, Maharashtra
29/--/ANGAhmadnagar (2)  02:37+802:40+103m12-221.459650mCRAhmednagar 414001, Maharashtra
30/--/BAPBelapur (2)  03:48+1503:50+162m12-154.468541mCRShrirampur, Maharashtra
31/--/PBPuntamba Junction (2)X  04:08+1804:10+232m12-134.169501mCRPuntamba, Maharashtra
32/--/KPGKopargaon (2)X  04:31+3004:33+322m12-109.827508mCRKopargaon 423601, Maharashtra
33/--/YLYeola (2)X  05:03+1705:05+192m--2-96.126553mCRYeola, Maharashtra
34/--/MMRManmad Junction (6)X  06:10+906:15+135m52-67.585580mCRManmad 423104, Maharashtra
35/==/NGNNandgaon (3)X  06:33+1806:35+182m--2-42.290476mCRNandgaon, Maharashtra
36/==/CSNChalisgaon Junction (3)»X  07:03+2107:05+212m--20.096352mCRChalisgaon 424101, Maharashtra
37/==/PCPachora Junction (4)  07:33+2307:35+232m--244.875264mCRPachora 424201, Maharashtra
38/==/JLJalgaon Junction (4)  08:13+2308:15+242m3292.558213mCRJalgaon 425001, Maharashtra
39/==/BSLBhusaval Junction (8)XO08:40+2713:50 13:35-310 295m42116.769208mCRBhusaval 425201, Maharashtra
40/==/RVRaver (2)X  14:20 14:05-14:22 14:07-2m--2151.076242mCRJalgaon, Maharashtra
41/==/BAUBurhanpur (2)  14:38 14:23-14:40 14:25-2m22171.268269mCRBurhanpur, Madhya Pradesh
42/==/NPNRNepanagar (2)  14:58 14:48-15:00 14:50-2m--2197.426289mCRState Highway 27, Madhya Pradesh
43/==/KNWKhandwa Junction (5)XO  16:40 16:30-16:45 16:35-5m--2240.059310mCRKhandwa, Madhya Pradesh
44/==/KKNKhirkiya (2)  17:53-17:55-2m22316.1105281mWCRSH 15, Madhya Pradesh
45/==/HDHarda (3)XO  18:13-18:55 18:15-42 2m--2347.750289mWCRHarda, Madhya Pradesh
46/==/BPFBanapura (2)XO  19:06-19:08-2m--2390.016314mWCRBanapura, Madhya Pradesh
47/==/ETItarsi Junction (7)X  21:10-21:20-10m--2423.574329mWCRItarsi 461111, Madhya Pradesh
48|==|SGPSohagpur (2)X  22:00-22:02-2m--2473.076340mWCRSohagpur, Madhya Pradesh
49|==|PPIPipariya (3)X  22:16-22:18-2m12490.799338mWCRPiparia, Madhya Pradesh
50|==|GARGadarwara (2)X  22:48-22:50-2m12540.168352mWCRNarsinghpur, Madhya Pradesh
51|==|KYKareli (2)  23:15-23:17-2m12568.686361mWCRKareli, Madhya Pradesh
52|==|NUNarsinghpur (2)X  23:28-23:30-2m12584.460365mWCRNarsimhapur, Madhya Pradesh
53|==|SRIDShridham (3)X  00:01-00:03-2m23615.576373mWCRShridham, Madhya Pradesh
54|==|MMLMadan Mahal (3)  00:42-00:44-2m23665.118428mWCRJabalpur, Madhya Pradesh
55|==|JBPJabalpur Junction (4)X  00:55-01:05-10m33668.459416mWCRJabalpur, Madhya Pradesh
56|==|SHRSihora Road (2)XO  01:36 01:44-01:38 01:46-2m--3707.092388mWCRJabalpur, Madhya Pradesh
57|==%KTEKatni Junction (6)X  02:20-02:25-5m--3759.367387mWCRKatni, Madhya Pradesh
58%==%MYRMaihar (3)X  03:21-03:23-2m13822.279353mWCRMaihar Railway Station, Madhya Pradesh
59%==%STASatna Junction (3)X  03:55 03:50-04:05 04:00-10m23857.771322mWCRSatna, Madhya Pradesh
60%==%JTWJaitwar (2)X  04:22 04:17-04:24 04:19-2m--3877.738321mWCRJaitwar, Madhya Pradesh
61%==%MKPManikpur Junction (4)X  05:50-05:55-5m--3935.375250mNCRManikpur, Uttar Pradesh
62%==%DBRDabhaura (2)X  06:13-06:15-2m--3957.972201mNCRDabhaura, Uttar Pradesh
63%==%SRJShankargarh (3)  06:42-06:44-2m--3990.366132mNCRShankargarh, Uttar Pradesh
64%==%JSRJasra (2)X  07:04-07:06-2m--31012.22497mNCRJasra, Uttar Pradesh
65%==/NYNNaini Junction (4)X  07:45-07:47-2m431027.81998mNCRAllahabad, Uttar Pradesh
66/==/ALDAllahabad Junction (10)O08:10-08:35-25m931034.932100mNCRAllahabad 211003, Uttar Pradesh
67%--%PRGPrayag Junction (3)XO  08:47-08:49-2m--31041.21696mNRAllahabad, Uttar Pradesh
68%--%PFMPhaphamau Junction (3)XO  09:13-09:15-2m--31047.56099mNRAllahabad, Uttar Pradesh
69%--%SYCSarai ChandiO  09:28-09:30-2m--31060.65795mNR221507, Uttar Pradesh
70%--%PLPPhulpur (3)O  09:41-09:43-2m131071.17893mNRDistrict - Allahabad 212402, Uttar Pradesh
71%--%URPRUgrasenpur (2)  09:51-09:53-2m131081.65096mNRJanghai, Uttar Pradesh
72|--%JNHJanghai Junction (3)O  10:08-10:10-2m--31094.13492mNRUttar Pradesh 212401, Uttar Pradesh
73%==%SQNSarai Kansrai (2)XO  10:19-10:21-2m--31099.24092mNRGopalaha Marg, Uttar Pradesh
74%==%SAWSuriawan (2)O  10:36-10:38-2m--31109.25490mNR221404, Uttar Pradesh
75%==%MOFMondh (2)  10:46-10:48-2m131116.44491mNRUttar Pradesh 221406, Uttar Pradesh
76%==%BOYBhadohi (2)O  10:59-11:01-2m--31124.64190mNRUttar Pradesh 221401, Uttar Pradesh
77%==%PRFParsipur (2)O  11:13-11:15-2m--31132.86387mNRSant Ravidas Nagar, Uttar Pradesh
78%==%KEHKapseti (2)O  11:23-11:25-2m--31141.24085mNRState Highway 87, Uttar Pradesh
79%==%SWPRSewapuri (2)X  11:33-11:35-2m131146.52187mNRState Highway 87, Uttar Pradesh
80/==%BSBVaranasi Junction (9)X  12:40-13:00-20m--31169.12482mNRVaranasi 221002, Uttar Pradesh
81|--|BCYVaranasi City (3)  13:08-13:10-2m--31172.34777mNERVaranasi, Uttar Pradesh
82|--|ARJAunrihar Junction (4)  13:43 13:51-13:45 13:53-2m--31204.27480mNERGhazipur, Uttar Pradesh
83|--|JKNJakhanian  14:09 14:16-14:11 14:18-2m--31232.75182mNERState Highway 67, Uttar Pradesh
84|--|DLRDullahapur  14:28-14:30-2m--31241.13279mNERDullahapur, Uttar Pradesh
85|-=|MAUMau Junction (4)  15:05 15:10-15:10 15:15-5m--31262.13175mNERMau., Uttar Pradesh
86|=-|IAAIndara Junction (3)O  15:25 15:30-15:27 15:32-2m--31270.07774mNERMau, Uttar Pradesh
87|--|BLTRBelthara Road (2)  16:03 15:53-16:05 15:55-2m--31297.16170mNERBelthara, Uttar Pradesh
88|--|LRDLar Road (2)  16:13 16:08-16:15 16:10-2m--31310.22374mNERDeoria, Uttar Pradesh
89|--|SRUSalempur Junction (2)X  16:46 16:35-16:48 16:40-2 5m--31319.61871mNERSalempur, Uttar Pradesh
90|--|BTTBhatni Junction (5)XO  17:10 17:15-17:15 17:20-5m--31329.86973mNERDeoria, Uttar Pradesh
91%==%DEOSDeoria Sadar (3)  17:33 17:38-17:35 17:40-2m--31350.63379mNERDeoria- 274001, Uttar Pradesh
92%==%GKPGorakhpur Junction (10)•  19:10----31399.7-84mNERGorakhpur 273001, Uttar Pradesh
Scroll to Top
Scroll to Bottom